Time;durP1;ratioP1;P1;durP2;ratioP2;P2;SDS_P1;SDS_P2;PMS_P1;PMS_P2;Temp;Humidity;BMP_temperature;BMP_pressure;BME280_temperature;BME280_humidity;BME280_pressure;Samples;Min_cycle;Max_cycle;Signal;HPM_P1;HPM_P2
2022/04/12 00:01:16;;;;;;;11.88;4.82;;;;;;;;;;5046586;28;20033;-80
2022/04/12 00:03:42;;;;;;;11.55;4.80;;;;;;;;;;5048612;28;20056;-80
2022/04/12 00:06:08;;;;;;;11.10;5.07;;;;;;;;;;5037808;28;20394;-79
2022/04/12 00:08:34;;;;;;;10.32;4.45;;;;;;;;;;5030130;28;20033;-80
2022/04/12 00:11:00;;;;;;;12.73;6.20;;;;;;;;;;5040942;28;20025;-79
2022/04/12 00:13:26;;;;;;;11.52;4.88;;;;;;;;;;5049676;28;20037;-80
2022/04/12 00:15:52;;;;;;;8.98;4.13;;;;;;;;;;5057470;28;20036;-79
2022/04/12 00:21:03;;;;;;;7.80;3.70;;;;;;;;;;5059188;28;20082;-80
2022/04/12 00:23:29;;;;;;;12.18;5.13;;;;;;;;;;5049813;28;20041;-80
2022/04/12 00:25:55;;;;;;;15.45;5.15;;;;;;;;;;5049425;28;20032;-80
2022/04/12 00:28:22;;;;;;;10.02;4.57;;;;;;;;;;5039077;28;20037;-80
2022/04/12 00:30:48;;;;;;;9.13;4.20;;;;;;;;;;5044795;28;20956;-80
2022/04/12 00:33:15;;;;;;;9.85;4.10;;;;;;;;;;5035829;28;20387;-80
2022/04/12 00:35:41;;;;;;;11.57;4.35;;;;;;;;;;5029488;28;20491;-80
2022/04/12 00:38:17;;;;;;;6.60;3.50;;;;;;;;;;5041821;28;20033;-79
2022/04/12 00:40:44;;;;;;;8.90;3.78;;;;;;;;;;5049741;28;20654;-80
2022/04/12 00:43:10;;;;;;;8.48;4.05;;;;;;;;;;5048767;28;20041;-80
2022/04/12 00:45:36;;;;;;;7.82;3.55;;;;;;;;;;5046495;28;20164;-80
2022/04/12 00:48:02;;;;;;;13.40;4.22;;;;;;;;;;5037873;28;20116;-80
2022/04/12 00:50:28;;;;;;;10.30;3.63;;;;;;;;;;5048970;28;20032;-80
2022/04/12 00:52:55;;;;;;;8.40;4.15;;;;;;;;;;5034708;28;20352;-80
2022/04/12 00:55:22;;;;;;;10.00;3.70;;;;;;;;;;5039889;28;20099;-80
2022/04/12 00:57:48;;;;;;;11.32;4.40;;;;;;;;;;5035727;28;20036;-80
2022/04/12 01:00:16;;;;;;;9.35;4.15;;;;;;;;;;5040362;28;20688;-79
2022/04/12 01:02:42;;;;;;;11.73;4.72;;;;;;;;;;5048989;28;20034;-80
2022/04/12 01:05:08;;;;;;;11.57;3.63;;;;;;;;;;5048651;28;20033;-80
2022/04/12 01:07:35;;;;;;;10.93;4.30;;;;;;;;;;5049124;28;20033;-80
2022/04/12 01:10:01;;;;;;;11.82;3.97;;;;;;;;;;5037183;28;20029;-80
2022/04/12 01:12:28;;;;;;;10.55;3.85;;;;;;;;;;5048866;28;20028;-80
2022/04/12 01:14:55;;;;;;;10.32;3.65;;;;;;;;;;5040022;28;20106;-80
2022/04/12 01:17:21;;;;;;;10.68;4.25;;;;;;;;;;5065773;28;20021;-79
2022/04/12 01:19:47;;;;;;;12.07;4.25;;;;;;;;;;5044826;28;20038;-80
2022/04/12 01:22:16;;;;;;;10.75;3.92;;;;;;;;;;5032423;28;20474;-80
2022/04/12 01:24:42;;;;;;;10.63;5.03;;;;;;;;;;5036371;28;20119;-79
2022/04/12 01:27:08;;;;;;;8.45;4.35;;;;;;;;;;5045987;28;20024;-80
2022/04/12 01:29:36;;;;;;;12.65;5.32;;;;;;;;;;5046608;28;20120;-80
2022/04/12 01:32:02;;;;;;;11.18;4.05;;;;;;;;;;5034944;28;20026;-80
2022/04/12 01:34:29;;;;;;;9.45;4.53;;;;;;;;;;5042627;28;20662;-79
2022/04/12 01:36:55;;;;;;;11.35;5.82;;;;;;;;;;5036691;28;20631;-80
2022/04/12 01:39:21;;;;;;;10.98;4.80;;;;;;;;;;5049172;28;20467;-80
2022/04/12 01:41:47;;;;;;;10.45;4.88;;;;;;;;;;5044569;28;20029;-80
2022/04/12 01:44:13;;;;;;;12.32;5.72;;;;;;;;;;5044763;28;20049;-80
2022/04/12 01:46:39;;;;;;;13.20;6.22;;;;;;;;;;5028699;28;20565;-80
2022/04/12 01:49:05;;;;;;;14.77;6.15;;;;;;;;;;5044079;28;20072;-80
2022/04/12 01:51:31;;;;;;;14.90;6.05;;;;;;;;;;5028718;28;20033;-80
2022/04/12 01:53:57;;;;;;;14.32;5.35;;;;;;;;;;5032273;28;20030;-80
2022/04/12 01:56:24;;;;;;;13.43;5.47;;;;;;;;;;5048875;28;20074;-79
2022/04/12 01:58:50;;;;;;;14.10;5.90;;;;;;;;;;5052300;28;20041;-80
2022/04/12 02:01:16;;;;;;;10.73;5.03;;;;;;;;;;5050967;28;20390;-80
2022/04/12 02:03:42;;;;;;;11.15;5.95;;;;;;;;;;5051713;28;20057;-80
2022/04/12 02:06:08;;;;;;;8.70;5.38;;;;;;;;;;5051411;28;20033;-79
2022/04/12 02:08:35;;;;;;;12.27;5.68;;;;;;;;;;5052101;28;20466;-79
2022/04/12 02:11:01;;;;;;;11.88;6.28;;;;;;;;;;5039926;28;20065;-80
2022/04/12 02:13:27;;;;;;;11.82;5.60;;;;;;;;;;5031827;28;20878;-80
2022/04/12 02:15:53;;;;;;;11.65;5.63;;;;;;;;;;5042339;28;20033;-79
2022/04/12 02:18:19;;;;;;;15.50;6.88;;;;;;;;;;5051957;28;20682;-79
2022/04/12 02:20:45;;;;;;;12.05;6.07;;;;;;;;;;5050791;28;20037;-80
2022/04/12 02:23:12;;;;;;;13.60;7.55;;;;;;;;;;5052211;28;20033;-80
2022/04/12 02:25:38;;;;;;;16.35;6.40;;;;;;;;;;5051249;28;20462;-80
2022/04/12 02:28:04;;;;;;;11.15;6.45;;;;;;;;;;5052429;28;20071;-80
2022/04/12 02:30:30;;;;;;;11.63;6.28;;;;;;;;;;5050509;28;20037;-79
2022/04/12 02:32:56;;;;;;;11.63;6.20;;;;;;;;;;5048738;28;20040;-80
2022/04/12 02:35:23;;;;;;;12.55;6.50;;;;;;;;;;5034921;28;20952;-80
2022/04/12 02:37:49;;;;;;;14.15;7.05;;;;;;;;;;5050545;28;20079;-80
2022/04/12 02:40:15;;;;;;;12.25;7.00;;;;;;;;;;5048939;28;20025;-80
2022/04/12 02:42:41;;;;;;;12.05;6.88;;;;;;;;;;5040107;28;20561;-79
2022/04/12 02:45:07;;;;;;;13.85;6.32;;;;;;;;;;5047552;28;20033;-79
2022/04/12 02:47:33;;;;;;;19.10;7.28;;;;;;;;;;5040581;28;20025;-80
2022/04/12 02:49:59;;;;;;;11.18;5.65;;;;;;;;;;5040111;28;20041;-79
2022/04/12 02:52:25;;;;;;;15.02;5.07;;;;;;;;;;5045096;28;20048;-80
2022/04/12 02:54:51;;;;;;;11.50;4.95;;;;;;;;;;5037250;28;20041;-79
2022/04/12 02:57:18;;;;;;;14.48;4.93;;;;;;;;;;5050874;28;20028;-80
2022/04/12 02:59:44;;;;;;;13.82;5.13;;;;;;;;;;5050522;28;20490;-80
2022/04/12 03:02:10;;;;;;;13.63;6.00;;;;;;;;;;5050893;28;20068;-80
2022/04/12 03:04:36;;;;;;;15.35;5.90;;;;;;;;;;5050069;28;20063;-79
2022/04/12 03:07:01;;;;;;;18.00;5.82;;;;;;;;;;5040511;28;20029;-79
2022/04/12 03:09:28;;;;;;;11.57;5.20;;;;;;;;;;5031196;28;20037;-79
2022/04/12 03:11:54;;;;;;;11.73;5.05;;;;;;;;;;5048730;28;20040;-80
2022/04/12 03:14:20;;;;;;;12.70;5.65;;;;;;;;;;5050955;28;20094;-80
2022/04/12 03:16:46;;;;;;;15.23;7.28;;;;;;;;;;5046784;28;20025;-80
2022/04/12 03:19:12;;;;;;;19.85;11.82;;;;;;;;;;5051171;28;20095;-80
2022/04/12 03:21:38;;;;;;;19.38;12.60;;;;;;;;;;5045228;28;20047;-79
2022/04/12 03:24:05;;;;;;;22.20;11.90;;;;;;;;;;5031267;28;20031;-79
2022/04/12 03:26:31;;;;;;;13.45;10.13;;;;;;;;;;5040713;28;20033;-80
2022/04/12 03:28:57;;;;;;;25.63;17.83;;;;;;;;;;5032369;28;20378;-79
2022/04/12 03:31:23;;;;;;;21.65;14.25;;;;;;;;;;5038463;28;20048;-80
2022/04/12 03:33:49;;;;;;;19.10;15.02;;;;;;;;;;5051094;28;20168;-80
2022/04/12 03:36:15;;;;;;;21.35;14.63;;;;;;;;;;5049783;28;20079;-79
2022/04/12 03:38:48;;;;;;;21.10;9.23;;;;;;;;;;5050916;28;20040;-80
2022/04/12 03:41:15;;;;;;;15.45;8.13;;;;;;;;;;5049901;28;20028;-79
2022/04/12 03:43:41;;;;;;;16.23;9.27;;;;;;;;;;5044619;28;20060;-80
2022/04/12 03:46:07;;;;;;;17.88;8.75;;;;;;;;;;5016993;28;20671;-80
2022/04/12 03:48:33;;;;;;;17.13;7.70;;;;;;;;;;5050591;28;20738;-80
2022/04/12 03:50:59;;;;;;;16.30;8.45;;;;;;;;;;5055482;28;20040;-79
2022/04/12 03:53:25;;;;;;;20.98;8.13;;;;;;;;;;5070326;28;20068;-80
2022/04/12 03:55:51;;;;;;;11.77;5.80;;;;;;;;;;5063147;28;20060;-79
2022/04/12 03:58:19;;;;;;;13.18;6.13;;;;;;;;;;5030287;28;20105;-79
2022/04/12 04:00:45;;;;;;;13.45;6.15;;;;;;;;;;5034102;28;20025;-80
2022/04/12 04:03:11;;;;;;;28.48;13.80;;;;;;;;;;5049374;28;20060;-79
2022/04/12 04:05:37;;;;;;;30.63;12.25;;;;;;;;;;5049515;28;20037;-79
2022/04/12 04:08:04;;;;;;;20.05;12.27;;;;;;;;;;5047798;28;20047;-79
2022/04/12 04:10:30;;;;;;;20.80;10.88;;;;;;;;;;5046980;28;20971;-80
2022/04/12 04:12:56;;;;;;;24.77;12.77;;;;;;;;;;5063383;28;20370;-79
2022/04/12 04:15:22;;;;;;;23.17;11.68;;;;;;;;;;5047847;28;20029;-79
2022/04/12 04:17:48;;;;;;;25.23;12.13;;;;;;;;;;5043914;28;20033;-79
2022/04/12 04:20:15;;;;;;;24.52;13.52;;;;;;;;;;5043029;28;20056;-80
2022/04/12 04:22:42;;;;;;;19.80;10.52;;;;;;;;;;5032409;28;20117;-80
2022/04/12 04:25:08;;;;;;;18.60;10.27;;;;;;;;;;5036283;28;20029;-79
2022/04/12 04:27:34;;;;;;;17.13;10.88;;;;;;;;;;5031624;28;20095;-79
2022/04/12 04:30:02;;;;;;;17.73;10.13;;;;;;;;;;5049257;28;20025;-79
2022/04/12 04:32:28;;;;;;;17.48;10.32;;;;;;;;;;5049656;28;20570;-80
2022/04/12 04:34:55;;;;;;;21.90;10.88;;;;;;;;;;5032422;28;20467;-80
2022/04/12 04:37:21;;;;;;;18.90;10.70;;;;;;;;;;5045243;28;20048;-79
2022/04/12 04:39:47;;;;;;;20.23;10.40;;;;;;;;;;5030324;28;20705;-80
2022/04/12 04:42:13;;;;;;;18.98;11.65;;;;;;;;;;5046662;28;20389;-79
2022/04/12 04:44:39;;;;;;;18.73;11.43;;;;;;;;;;5049673;28;20579;-80
2022/04/12 04:47:05;;;;;;;22.25;12.27;;;;;;;;;;5054093;28;20031;-79
2022/04/12 04:49:31;;;;;;;18.15;10.93;;;;;;;;;;5049270;28;20074;-79
2022/04/12 04:51:57;;;;;;;21.40;12.70;;;;;;;;;;5048674;28;20727;-81
2022/04/12 04:54:23;;;;;;;17.92;12.20;;;;;;;;;;5049025;28;20033;-80
2022/04/12 04:56:49;;;;;;;22.65;13.00;;;;;;;;;;5037942;28;20425;-80
2022/04/12 04:59:15;;;;;;;23.65;14.85;;;;;;;;;;5048077;28;20621;-79
2022/04/12 05:01:41;;;;;;;29.73;13.05;;;;;;;;;;5048771;28;20036;-79
2022/04/12 05:04:07;;;;;;;25.02;12.85;;;;;;;;;;5048927;28;20134;-79
2022/04/12 05:06:33;;;;;;;25.50;10.25;;;;;;;;;;5047132;28;20033;-79
2022/04/12 05:08:59;;;;;;;17.33;9.57;;;;;;;;;;5029727;28;20041;-79
2022/04/12 05:11:25;;;;;;;22.58;9.68;;;;;;;;;;5028746;28;20029;-79
2022/04/12 05:13:51;;;;;;;18.98;9.65;;;;;;;;;;5039437;28;20360;-80
2022/04/12 05:16:17;;;;;;;23.83;10.50;;;;;;;;;;5043900;28;20458;-79
2022/04/12 05:18:43;;;;;;;22.88;10.30;;;;;;;;;;5047651;28;20077;-80
2022/04/12 05:21:09;;;;;;;20.50;10.07;;;;;;;;;;5048935;28;20067;-79
2022/04/12 05:23:35;;;;;;;22.92;9.15;;;;;;;;;;5047959;28;20061;-80
2022/04/12 05:26:01;;;;;;;21.58;10.60;;;;;;;;;;5048338;28;20096;-79
2022/04/12 05:28:27;;;;;;;19.38;10.18;;;;;;;;;;5046428;28;20116;-79
2022/04/12 05:30:53;;;;;;;18.92;10.43;;;;;;;;;;5051512;28;20374;-79
2022/04/12 05:33:19;;;;;;;24.35;10.70;;;;;;;;;;5054630;28;20128;-80
2022/04/12 05:35:45;;;;;;;21.33;10.65;;;;;;;;;;5053044;28;20108;-79
2022/04/12 05:38:11;;;;;;;23.70;10.50;;;;;;;;;;5052980;28;20034;-79
2022/04/12 05:40:37;;;;;;;26.73;10.18;;;;;;;;;;5050264;28;20037;-79
2022/04/12 05:43:03;;;;;;;23.10;10.38;;;;;;;;;;5047846;28;20463;-79
2022/04/12 05:45:29;;;;;;;21.55;11.40;;;;;;;;;;5044318;28;20065;-80
2022/04/12 05:47:56;;;;;;;26.30;12.63;;;;;;;;;;5054172;28;20037;-79
2022/04/12 05:50:26;;;;;;;33.55;11.80;;;;;;;;;;5051564;28;20029;-80
2022/04/12 05:52:52;;;;;;;25.02;11.68;;;;;;;;;;5052165;28;20437;-80
2022/04/12 05:55:19;;;;;;;27.60;11.55;;;;;;;;;;5051460;28;20033;-80
2022/04/12 05:57:53;;;;;;;21.10;10.23;;;;;;;;;;5039726;28;20041;-80
2022/04/12 06:00:20;;;;;;;29.13;9.80;;;;;;;;;;5047231;28;20036;-79
2022/04/12 06:02:47;;;;;;;19.38;9.77;;;;;;;;;;5061495;28;20041;-80
2022/04/12 06:05:13;;;;;;;27.65;10.90;;;;;;;;;;5052194;28;20029;-80
2022/04/12 06:07:40;;;;;;;22.20;9.65;;;;;;;;;;5052028;28;20506;-79
2022/04/12 06:10:06;;;;;;;28.90;10.13;;;;;;;;;;5051595;28;20024;-80
2022/04/12 06:12:32;;;;;;;29.40;9.88;;;;;;;;;;5037240;28;20034;-80
2022/04/12 06:14:58;;;;;;;22.63;8.38;;;;;;;;;;5043704;28;20031;-80
2022/04/12 06:17:30;;;;;;;23.80;8.10;;;;;;;;;;5049225;28;20028;-79
2022/04/12 06:20:04;;;;;;;23.50;7.57;;;;;;;;;;5051166;28;20048;-81
2022/04/12 06:22:30;;;;;;;24.33;7.57;;;;;;;;;;5051133;28;20087;-80
2022/04/12 06:24:56;;;;;;;23.15;7.40;;;;;;;;;;5051686;28;20107;-80
2022/04/12 06:27:29;;;;;;;19.13;7.57;;;;;;;;;;5051852;28;20470;-80
2022/04/12 06:29:55;;;;;;;17.00;7.13;;;;;;;;;;5051650;28;20037;-80
2022/04/12 06:32:21;;;;;;;17.80;6.70;;;;;;;;;;5051204;28;20037;-79
2022/04/12 06:34:47;;;;;;;13.48;5.88;;;;;;;;;;5040890;28;20044;-79
2022/04/12 06:37:13;;;;;;;20.63;7.15;;;;;;;;;;5036279;28;20032;-79
2022/04/12 06:39:39;;;;;;;19.13;8.90;;;;;;;;;;5033440;28;20056;-79
2022/04/12 06:42:06;;;;;;;27.27;15.48;;;;;;;;;;5050019;28;20029;-79
2022/04/12 06:44:32;;;;;;;31.83;17.33;;;;;;;;;;5051655;28;20040;-80
2022/04/12 06:46:58;;;;;;;31.05;18.63;;;;;;;;;;5050749;28;20382;-80
2022/04/12 06:49:24;;;;;;;32.53;22.38;;;;;;;;;;5049530;28;20148;-79
2022/04/12 06:51:50;;;;;;;41.72;23.15;;;;;;;;;;5045710;28;20029;-80
2022/04/12 06:54:16;;;;;;;34.17;22.33;;;;;;;;;;5051325;28;20041;-80
2022/04/12 06:56:42;;;;;;;39.28;25.92;;;;;;;;;;5051234;28;20059;-80
2022/04/12 06:59:08;;;;;;;36.75;20.58;;;;;;;;;;5048773;28;20107;-79
2022/04/12 07:01:34;;;;;;;32.03;19.88;;;;;;;;;;5050706;28;20107;-79
2022/04/12 07:04:00;;;;;;;27.63;17.88;;;;;;;;;;5048941;28;20072;-80
2022/04/12 07:06:26;;;;;;;32.92;19.92;;;;;;;;;;5050731;28;20067;-80
2022/04/12 07:08:52;;;;;;;26.27;18.15;;;;;;;;;;5049802;28;20048;-80
2022/04/12 07:11:19;;;;;;;17.30;9.57;;;;;;;;;;5049578;28;20032;-79
2022/04/12 07:13:45;;;;;;;13.88;7.32;;;;;;;;;;5050895;28;20041;-80
2022/04/12 07:16:11;;;;;;;15.98;5.47;;;;;;;;;;5050209;28;20071;-80
2022/04/12 07:18:37;;;;;;;20.88;6.03;;;;;;;;;;5044856;28;20496;-80
2022/04/12 07:21:04;;;;;;;15.70;6.28;;;;;;;;;;5043320;28;20486;-80
2022/04/12 07:23:30;;;;;;;13.35;4.93;;;;;;;;;;5048903;28;20049;-80
2022/04/12 07:25:56;;;;;;;17.38;6.45;;;;;;;;;;5048908;28;20036;-80
2022/04/12 07:28:22;;;;;;;22.60;8.10;;;;;;;;;;5050882;28;20397;-80
2022/04/12 07:30:48;;;;;;;24.48;9.30;;;;;;;;;;5049944;28;20040;-80
2022/04/12 07:33:14;;;;;;;27.95;10.10;;;;;;;;;;5048249;28;20088;-80
2022/04/12 07:35:40;;;;;;;32.28;9.95;;;;;;;;;;5049574;28;20035;-80
2022/04/12 07:38:06;;;;;;;25.10;8.25;;;;;;;;;;5050704;28;20102;-80
2022/04/12 07:40:32;;;;;;;26.83;8.48;;;;;;;;;;5031447;28;20080;-80
2022/04/12 07:42:58;;;;;;;23.65;8.18;;;;;;;;;;5050152;28;20069;-80
2022/04/12 07:45:24;;;;;;;17.83;6.45;;;;;;;;;;5050067;28;20058;-80
2022/04/12 07:47:50;;;;;;;18.08;6.88;;;;;;;;;;5049731;28;20470;-79
2022/04/12 07:50:16;;;;;;;16.70;5.35;;;;;;;;;;5050008;28;20037;-80
2022/04/12 07:52:42;;;;;;;13.63;4.65;;;;;;;;;;5049197;28;20497;-80
2022/04/12 07:55:08;;;;;;;14.50;5.25;;;;;;;;;;5047137;28;20040;-80
2022/04/12 07:57:34;;;;;;;15.10;5.65;;;;;;;;;;5049190;28;20020;-80
2022/04/12 08:00:00;;;;;;;12.50;5.05;;;;;;;;;;5042498;28;20033;-80
2022/04/12 08:02:26;;;;;;;16.67;4.88;;;;;;;;;;5048127;28;20035;-80
2022/04/12 08:04:54;;;;;;;19.70;4.68;;;;;;;;;;5050025;28;20800;-80
2022/04/12 08:07:20;;;;;;;22.00;6.43;;;;;;;;;;5047432;28;20029;-80
2022/04/12 08:09:46;;;;;;;16.02;5.88;;;;;;;;;;5050490;28;20049;-80
2022/04/12 08:12:12;;;;;;;20.88;5.40;;;;;;;;;;5058584;28;20033;-80
2022/04/12 08:14:38;;;;;;;15.63;5.93;;;;;;;;;;5050640;28;20116;-80
2022/04/12 08:17:04;;;;;;;18.58;5.75;;;;;;;;;;5051117;28;20763;-80
2022/04/12 08:19:30;;;;;;;16.38;6.40;;;;;;;;;;5049382;28;20041;-80
2022/04/12 08:21:56;;;;;;;18.80;5.78;;;;;;;;;;5047335;28;20063;-79
2022/04/12 08:24:23;;;;;;;17.13;5.80;;;;;;;;;;5029892;28;20042;-79
2022/04/12 08:26:49;;;;;;;13.85;4.43;;;;;;;;;;5029711;28;20037;-79
2022/04/12 08:29:15;;;;;;;13.07;5.05;;;;;;;;;;5050005;28;20041;-80
2022/04/12 08:31:41;;;;;;;12.52;3.38;;;;;;;;;;5038776;28;20036;-80
2022/04/12 08:34:07;;;;;;;12.65;3.55;;;;;;;;;;5047967;28;20033;-79
2022/04/12 08:36:33;;;;;;;16.40;4.13;;;;;;;;;;5041158;28;20117;-80
2022/04/12 08:38:59;;;;;;;11.52;4.28;;;;;;;;;;5044560;28;20549;-79
2022/04/12 08:41:26;;;;;;;17.95;4.03;;;;;;;;;;5042237;28;20039;-79
2022/04/12 08:43:57;;;;;;;13.38;4.18;;;;;;;;;;5045287;28;20580;-80
2022/04/12 08:46:27;;;;;;;15.38;3.88;;;;;;;;;;5049026;28;20039;-79
2022/04/12 08:48:54;;;;;;;13.68;3.50;;;;;;;;;;5048181;28;20048;-79
2022/04/12 08:51:21;;;;;;;13.07;4.38;;;;;;;;;;5049395;28;20051;-79
2022/04/12 08:53:47;;;;;;;10.63;3.90;;;;;;;;;;5048913;28;20044;-79
2022/04/12 08:56:13;;;;;;;10.30;2.80;;;;;;;;;;5049355;28;20021;-79
2022/04/12 08:58:39;;;;;;;11.27;3.70;;;;;;;;;;5048326;28;20036;-79
2022/04/12 09:01:05;;;;;;;9.88;3.15;;;;;;;;;;5048997;28;20116;-80
2022/04/12 09:03:31;;;;;;;11.82;3.30;;;;;;;;;;5048488;28;20182;-79
2022/04/12 09:05:57;;;;;;;11.00;2.40;;;;;;;;;;5048756;28;20076;-79
2022/04/12 09:08:32;;;;;;;10.65;3.15;;;;;;;;;;5051455;28;20037;-80
2022/04/12 09:11:03;;;;;;;11.88;3.33;;;;;;;;;;5041451;28;20116;-79
2022/04/12 09:13:29;;;;;;;12.27;2.72;;;;;;;;;;5051759;28;20025;-80
2022/04/12 09:15:56;;;;;;;10.25;3.17;;;;;;;;;;5052841;28;20463;-80
2022/04/12 09:18:35;;;;;;;9.23;2.50;;;;;;;;;;5052795;28;20056;-80
2022/04/12 09:21:11;;;;;;;8.90;2.67;;;;;;;;;;5052468;28;20398;-80
2022/04/12 09:23:37;;;;;;;11.73;2.63;;;;;;;;;;5051599;28;20033;-80
2022/04/12 09:26:03;;;;;;;7.28;2.28;;;;;;;;;;5052848;28;20468;-80
2022/04/12 09:28:55;;;;;;;12.30;2.65;;;;;;;;;;5052201;28;20037;-80
2022/04/12 09:31:22;;;;;;;7.85;2.65;;;;;;;;;;5048628;28;20049;-80
2022/04/12 09:33:48;;;;;;;10.38;2.70;;;;;;;;;;5052331;28;20108;-80
2022/04/12 09:36:15;;;;;;;9.90;3.00;;;;;;;;;;5034252;28;20056;-80
2022/04/12 09:38:41;;;;;;;9.55;2.33;;;;;;;;;;5035426;28;20521;-80
2022/04/12 09:41:15;;;;;;;7.43;1.75;;;;;;;;;;5044647;28;20044;-80
2022/04/12 09:43:50;;;;;;;6.65;2.03;;;;;;;;;;5041597;28;20362;-80
2022/04/12 09:46:17;;;;;;;5.55;1.67;;;;;;;;;;5051876;28;20386;-80
2022/04/12 09:48:47;;;;;;;9.07;1.88;;;;;;;;;;5052457;28;20047;-80
2022/04/12 09:51:13;;;;;;;8.20;1.55;;;;;;;;;;5046927;28;20087;-79
2022/04/12 09:53:40;;;;;;;5.63;1.35;;;;;;;;;;5052184;28;20400;-80
2022/04/12 09:56:15;;;;;;;8.10;1.70;;;;;;;;;;5051649;28;20021;-80
2022/04/12 09:58:42;;;;;;;6.43;1.50;;;;;;;;;;5052776;28;20033;-80
2022/04/12 10:01:10;;;;;;;9.48;1.65;;;;;;;;;;5051340;28;20049;-80
2022/04/12 10:03:37;;;;;;;6.50;1.35;;;;;;;;;;5051847;28;20075;-80
2022/04/12 10:06:04;;;;;;;7.57;1.77;;;;;;;;;;5051532;28;20025;-80
2022/04/12 10:08:31;;;;;;;6.40;1.27;;;;;;;;;;5051692;28;20698;-80
2022/04/12 10:10:58;;;;;;;10.80;1.40;;;;;;;;;;5050847;28;20037;-80
2022/04/12 10:13:25;;;;;;;8.48;1.50;;;;;;;;;;5050949;28;20044;-80
2022/04/12 10:15:52;;;;;;;7.28;1.63;;;;;;;;;;5047906;28;20071;-80
2022/04/12 10:18:20;;;;;;;6.20;1.48;;;;;;;;;;5037225;28;20125;-80
2022/04/12 10:20:46;;;;;;;7.13;1.42;;;;;;;;;;5041649;28;20033;-80
2022/04/12 10:23:13;;;;;;;11.80;1.70;;;;;;;;;;5072275;28;20043;-80
2022/04/12 10:25:40;;;;;;;11.13;2.63;;;;;;;;;;5048695;28;20100;-80
2022/04/12 10:28:06;;;;;;;8.32;2.42;;;;;;;;;;5046374;28;20071;-80
2022/04/12 10:30:33;;;;;;;11.50;2.65;;;;;;;;;;5047927;28;20029;-80
2022/04/12 10:33:00;;;;;;;12.88;2.90;;;;;;;;;;5051748;28;20075;-80
2022/04/12 10:35:26;;;;;;;9.02;2.17;;;;;;;;;;5051718;28;20459;-80
2022/04/12 10:37:54;;;;;;;6.88;1.70;;;;;;;;;;5059617;28;20029;-80
2022/04/12 10:40:21;;;;;;;5.72;1.83;;;;;;;;;;5037464;28;20036;-80
2022/04/12 10:42:49;;;;;;;9.52;1.80;;;;;;;;;;5042443;28;20029;-80
2022/04/12 10:45:15;;;;;;;7.70;2.03;;;;;;;;;;5047039;28;20053;-80
2022/04/12 10:47:43;;;;;;;9.35;1.98;;;;;;;;;;5050673;28;20450;-80
2022/04/12 10:50:15;;;;;;;9.05;1.40;;;;;;;;;;5050729;28;20039;-79
2022/04/12 10:52:46;;;;;;;7.35;1.92;;;;;;;;;;5045293;28;20025;-80
2022/04/12 10:55:23;;;;;;;6.03;1.40;;;;;;;;;;5050854;28;20034;-80
2022/04/12 10:57:50;;;;;;;7.65;1.77;;;;;;;;;;5050736;28;20025;-80
2022/04/12 11:00:21;;;;;;;11.77;1.63;;;;;;;;;;5050986;28;20029;-80
2022/04/12 11:02:52;;;;;;;6.57;1.27;;;;;;;;;;5054003;28;20857;-80
2022/04/12 11:05:33;;;;;;;10.30;1.55;;;;;;;;;;5045349;28;20124;-79
2022/04/12 11:08:00;;;;;;;7.32;1.60;;;;;;;;;;5050666;28;20088;-79
2022/04/12 11:10:26;;;;;;;5.88;1.50;;;;;;;;;;5040995;28;20040;-79
2022/04/12 11:13:05;;;;;;;7.82;1.15;;;;;;;;;;5050868;28;20100;-80
2022/04/12 11:15:32;;;;;;;3.63;1.20;;;;;;;;;;5050870;28;20544;-79
2022/04/12 11:18:08;;;;;;;3.75;1.20;;;;;;;;;;5050173;28;20029;-79
2022/04/12 11:20:35;;;;;;;7.95;1.67;;;;;;;;;;5034615;28;20029;-79
2022/04/12 11:23:07;;;;;;;5.70;1.77;;;;;;;;;;5050617;28;20039;-79
2022/04/12 11:25:33;;;;;;;;;;;;;;;;;;5031258;28;20069;-79
2022/04/12 11:28:00;;;;;;;6.30;1.50;;;;;;;;;;5045651;28;19944;-79
2022/04/12 11:30:26;;;;;;;6.30;1.33;;;;;;;;;;5048747;28;20056;-79
2022/04/12 11:32:56;;;;;;;7.20;1.10;;;;;;;;;;5044651;28;20131;-79
2022/04/12 11:35:24;;;;;;;9.93;1.50;;;;;;;;;;5050791;28;20053;-80
2022/04/12 11:37:50;;;;;;;5.75;1.55;;;;;;;;;;5050465;28;20025;-80
2022/04/12 11:40:16;;;;;;;4.93;1.35;;;;;;;;;;5049877;28;20112;-79
2022/04/12 11:42:43;;;;;;;10.98;1.35;;;;;;;;;;5036244;28;20044;-79
2022/04/12 11:45:11;;;;;;;8.68;0.95;;;;;;;;;;5050283;28;20036;-79
2022/04/12 11:47:39;;;;;;;5.72;1.15;;;;;;;;;;5049435;28;20032;-79
2022/04/12 11:50:25;;;;;;;6.78;1.20;;;;;;;;;;5045485;28;20772;-79
2022/04/12 11:52:51;;;;;;;3.75;1.00;;;;;;;;;;5047727;28;20048;-80
2022/04/12 11:55:17;;;;;;;5.82;1.10;;;;;;;;;;5049888;28;20051;-79
2022/04/12 11:57:43;;;;;;;7.15;1.23;;;;;;;;;;5045148;28;20030;-79
2022/04/12 12:00:10;;;;;;;4.38;0.90;;;;;;;;;;5045521;28;20627;-80
2022/04/12 12:02:38;;;;;;;7.22;1.80;;;;;;;;;;5041207;28;20039;-79
2022/04/12 12:05:09;;;;;;;4.00;0.98;;;;;;;;;;5049794;28;20500;-79
2022/04/12 12:07:37;;;;;;;6.57;1.75;;;;;;;;;;5049223;28;20041;-79
2022/04/12 12:10:03;;;;;;;4.45;1.10;;;;;;;;;;5029681;28;20132;-80
2022/04/12 12:12:32;;;;;;;6.38;1.40;;;;;;;;;;5039018;28;20107;-79
2022/04/12 12:14:58;;;;;;;5.10;0.93;;;;;;;;;;5049534;28;20406;-79
2022/04/12 12:17:28;;;;;;;5.93;1.75;;;;;;;;;;5049158;28;20047;-80
2022/04/12 12:19:54;;;;;;;8.75;1.65;;;;;;;;;;5046210;28;20147;-79
2022/04/12 12:22:22;;;;;;;6.13;1.65;;;;;;;;;;5049419;28;20463;-79
2022/04/12 12:24:57;;;;;;;6.63;1.58;;;;;;;;;;5048884;28;20041;-79
2022/04/12 12:27:26;;;;;;;4.68;1.17;;;;;;;;;;5048819;28;20098;-79
2022/04/12 12:29:52;;;;;;;4.55;1.58;;;;;;;;;;5036337;28;20513;-79
2022/04/12 12:32:18;;;;;;;4.75;1.40;;;;;;;;;;5037518;28;20049;-79
2022/04/12 12:34:45;;;;;;;6.13;1.55;;;;;;;;;;5049242;28;20612;-79
2022/04/12 12:37:11;;;;;;;8.13;1.35;;;;;;;;;;5039076;28;20580;-79
2022/04/12 12:39:42;;;;;;;8.05;1.50;;;;;;;;;;5048213;28;20504;-79
2022/04/12 12:42:08;;;;;;;6.80;1.55;;;;;;;;;;5036145;28;20044;-79
2022/04/12 12:44:37;;;;;;;6.45;1.00;;;;;;;;;;5049148;28;20037;-79
2022/04/12 12:47:05;;;;;;;5.72;1.20;;;;;;;;;;5040846;28;20115;-79
2022/04/12 12:49:35;;;;;;;6.85;1.35;;;;;;;;;;5037900;28;20052;-78
2022/04/12 12:52:02;;;;;;;5.28;1.10;;;;;;;;;;5048975;28;20055;-79
2022/04/12 12:54:28;;;;;;;6.28;1.20;;;;;;;;;;5048116;28;20163;-79
2022/04/12 12:56:54;;;;;;;6.35;1.17;;;;;;;;;;5045203;28;20029;-79
2022/04/12 12:59:22;;;;;;;5.85;1.17;;;;;;;;;;5045233;28;20547;-79
2022/04/12 13:01:49;;;;;;;8.73;1.75;;;;;;;;;;5032501;28;20041;-79
2022/04/12 13:04:25;;;;;;;5.50;1.35;;;;;;;;;;5039712;28;20494;-79
2022/04/12 13:07:00;;;;;;;8.75;1.40;;;;;;;;;;5043332;28;20048;-79
2022/04/12 13:09:26;;;;;;;5.20;1.10;;;;;;;;;;5046128;28;20128;-79
2022/04/12 13:11:52;;;;;;;9.43;1.83;;;;;;;;;;5048459;28;20120;-79
2022/04/12 13:14:18;;;;;;;7.35;1.35;;;;;;;;;;5047664;28;20132;-79
2022/04/12 13:16:44;;;;;;;7.65;1.45;;;;;;;;;;5030918;28;20513;-79
2022/04/12 13:19:10;;;;;;;6.20;1.15;;;;;;;;;;5029132;28;20049;-79
2022/04/12 13:21:36;;;;;;;7.53;1.20;;;;;;;;;;5048511;28;20033;-79
2022/04/12 13:24:02;;;;;;;6.97;1.10;;;;;;;;;;5049014;28;20067;-79
2022/04/12 13:26:28;;;;;;;5.32;1.27;;;;;;;;;;5047888;28;20415;-79
2022/04/12 13:28:54;;;;;;;7.57;1.38;;;;;;;;;;5045776;28;20048;-79
2022/04/12 13:31:20;;;;;;;9.32;1.40;;;;;;;;;;5048110;28;20045;-79
2022/04/12 13:33:46;;;;;;;7.65;1.40;;;;;;;;;;5049028;28;20059;-79
2022/04/12 13:36:12;;;;;;;6.45;1.63;;;;;;;;;;5048019;28;20471;-79
2022/04/12 13:38:38;;;;;;;5.22;1.20;;;;;;;;;;5048822;28;20032;-78
2022/04/12 13:41:04;;;;;;;7.28;1.35;;;;;;;;;;5047758;28;20044;-78
2022/04/12 13:43:30;;;;;;;8.50;1.30;;;;;;;;;;5048505;28;20045;-78
2022/04/12 13:45:56;;;;;;;3.47;1.00;;;;;;;;;;5048091;28;20394;-78
2022/04/12 13:48:22;;;;;;;7.38;1.60;;;;;;;;;;5057821;28;20112;-78
2022/04/12 13:50:48;;;;;;;8.38;1.75;;;;;;;;;;5040708;28;20500;-78
2022/04/12 13:53:15;;;;;;;8.63;1.38;;;;;;;;;;5051830;28;20033;-78
2022/04/12 13:55:41;;;;;;;7.05;1.27;;;;;;;;;;5052507;28;20641;-78
2022/04/12 13:58:07;;;;;;;12.15;1.55;;;;;;;;;;5040619;28;20037;-78
2022/04/12 14:00:33;;;;;;;6.25;1.17;;;;;;;;;;5047701;28;20036;-78
2022/04/12 14:02:59;;;;;;;7.32;1.48;;;;;;;;;;5051037;28;20525;-78
2022/04/12 14:05:25;;;;;;;5.47;1.05;;;;;;;;;;5047946;28;20034;-78
2022/04/12 14:07:52;;;;;;;8.75;1.60;;;;;;;;;;5044624;28;20784;-78
2022/04/12 14:10:18;;;;;;;6.20;1.38;;;;;;;;;;5040034;28;20028;-78
2022/04/12 14:12:44;;;;;;;7.15;1.33;;;;;;;;;;5046885;28;20039;-78
2022/04/12 14:15:13;;;;;;;7.45;1.42;;;;;;;;;;5051917;28;20033;-78
2022/04/12 14:17:39;;;;;;;9.43;1.45;;;;;;;;;;5046005;28;20545;-78
2022/04/12 14:20:05;;;;;;;15.00;1.58;;;;;;;;;;5035567;28;20041;-78
2022/04/12 14:22:31;;;;;;;11.68;1.77;;;;;;;;;;5050536;28;20056;-78
2022/04/12 14:24:57;;;;;;;4.68;1.23;;;;;;;;;;5042022;28;20517;-78
2022/04/12 14:27:24;;;;;;;9.13;1.75;;;;;;;;;;5051508;28;20037;-78
2022/04/12 14:29:50;;;;;;;11.80;1.90;;;;;;;;;;5050503;28;20505;-79
2022/04/12 14:32:18;;;;;;;7.95;1.25;;;;;;;;;;5049959;28;20048;-78
2022/04/12 14:34:44;;;;;;;6.68;1.30;;;;;;;;;;5041958;28;20024;-78